sensor_id;sensor_type;location;lat;lon;timestamp;P1;durP1;ratioP1;P2;durP2;ratioP2
18677;SDS011;9469;51.114;13.914;2023-08-17T00:01:47;8.50;;;7.23;;
18677;SDS011;9469;51.114;13.914;2023-08-17T00:06:52;10.80;;;7.20;;
18677;SDS011;9469;51.114;13.914;2023-08-17T00:11:57;8.60;;;7.70;;
18677;SDS011;9469;51.114;13.914;2023-08-17T00:17:06;8.23;;;7.33;;
18677;SDS011;9469;51.114;13.914;2023-08-17T00:22:11;9.77;;;7.67;;
18677;SDS011;9469;51.114;13.914;2023-08-17T00:27:16;9.37;;;7.93;;
18677;SDS011;9469;51.114;13.914;2023-08-17T00:32:24;8.87;;;7.97;;
18677;SDS011;9469;51.114;13.914;2023-08-17T00:37:29;9.63;;;7.77;;
18677;SDS011;9469;51.114;13.914;2023-08-17T00:42:35;9.40;;;8.23;;
18677;SDS011;9469;51.114;13.914;2023-08-17T00:47:43;8.83;;;7.93;;
18677;SDS011;9469;51.114;13.914;2023-08-17T00:52:48;9.93;;;8.30;;
18677;SDS011;9469;51.114;13.914;2023-08-17T00:57:55;9.00;;;7.87;;
18677;SDS011;9469;51.114;13.914;2023-08-17T01:03:05;8.73;;;7.93;;
18677;SDS011;9469;51.114;13.914;2023-08-17T01:08:12;8.83;;;8.03;;
18677;SDS011;9469;51.114;13.914;2023-08-17T01:13:18;11.07;;;8.50;;
18677;SDS011;9469;51.114;13.914;2023-08-17T01:18:33;13.37;;;9.07;;
18677;SDS011;9469;51.114;13.914;2023-08-17T01:23:43;10.53;;;8.03;;
18677;SDS011;9469;51.114;13.914;2023-08-17T01:28:49;11.10;;;8.20;;
18677;SDS011;9469;51.114;13.914;2023-08-17T01:33:55;9.23;;;7.73;;
18677;SDS011;9469;51.114;13.914;2023-08-17T01:39:08;8.73;;;7.23;;
18677;SDS011;9469;51.114;13.914;2023-08-17T01:44:15;8.70;;;6.90;;
18677;SDS011;9469;51.114;13.914;2023-08-17T01:49:21;7.27;;;6.43;;
18677;SDS011;9469;51.114;13.914;2023-08-17T01:54:30;8.27;;;6.37;;
18677;SDS011;9469;51.114;13.914;2023-08-17T01:59:35;7.63;;;6.33;;
18677;SDS011;9469;51.114;13.914;2023-08-17T02:04:40;9.37;;;6.60;;
18677;SDS011;9469;51.114;13.914;2023-08-17T02:09:48;7.73;;;6.63;;
18677;SDS011;9469;51.114;13.914;2023-08-17T02:14:53;8.00;;;6.40;;
18677;SDS011;9469;51.114;13.914;2023-08-17T02:19:58;7.97;;;6.93;;
18677;SDS011;9469;51.114;13.914;2023-08-17T02:25:09;9.37;;;6.17;;
18677;SDS011;9469;51.114;13.914;2023-08-17T02:30:14;8.57;;;6.60;;
18677;SDS011;9469;51.114;13.914;2023-08-17T02:35:19;7.57;;;6.77;;
18677;SDS011;9469;51.114;13.914;2023-08-17T02:40:27;6.67;;;5.90;;
18677;SDS011;9469;51.114;13.914;2023-08-17T02:45:33;8.20;;;6.70;;
18677;SDS011;9469;51.114;13.914;2023-08-17T02:50:38;6.80;;;6.20;;
18677;SDS011;9469;51.114;13.914;2023-08-17T02:55:46;7.73;;;6.40;;
18677;SDS011;9469;51.114;13.914;2023-08-17T03:00:51;7.87;;;6.37;;
18677;SDS011;9469;51.114;13.914;2023-08-17T03:05:57;8.17;;;7.00;;
18677;SDS011;9469;51.114;13.914;2023-08-17T03:11:04;10.27;;;6.93;;
18677;SDS011;9469;51.114;13.914;2023-08-17T03:16:11;8.10;;;7.30;;
18677;SDS011;9469;51.114;13.914;2023-08-17T03:21:16;8.90;;;7.17;;
18677;SDS011;9469;51.114;13.914;2023-08-17T03:26:25;7.93;;;7.23;;
18677;SDS011;9469;51.114;13.914;2023-08-17T03:31:30;8.37;;;6.90;;
18677;SDS011;9469;51.114;13.914;2023-08-17T03:36:35;11.03;;;7.80;;
18677;SDS011;9469;51.114;13.914;2023-08-17T03:41:44;7.93;;;6.80;;
18677;SDS011;9469;51.114;13.914;2023-08-17T03:46:50;8.23;;;6.70;;
18677;SDS011;9469;51.114;13.914;2023-08-17T03:51:58;10.60;;;6.87;;
18677;SDS011;9469;51.114;13.914;2023-08-17T03:57:05;6.87;;;6.13;;
18677;SDS011;9469;51.114;13.914;2023-08-17T04:02:10;8.53;;;6.60;;
18677;SDS011;9469;51.114;13.914;2023-08-17T04:07:20;7.37;;;6.67;;
18677;SDS011;9469;51.114;13.914;2023-08-17T04:12:31;7.60;;;6.80;;
18677;SDS011;9469;51.114;13.914;2023-08-17T04:17:36;7.07;;;6.40;;
18677;SDS011;9469;51.114;13.914;2023-08-17T04:22:44;7.53;;;6.70;;
18677;SDS011;9469;51.114;13.914;2023-08-17T04:27:52;7.67;;;6.47;;
18677;SDS011;9469;51.114;13.914;2023-08-17T04:33:00;7.03;;;6.33;;
18677;SDS011;9469;51.114;13.914;2023-08-17T04:38:06;6.63;;;6.03;;
18677;SDS011;9469;51.114;13.914;2023-08-17T04:43:15;6.70;;;5.87;;
18677;SDS011;9469;51.114;13.914;2023-08-17T04:48:22;10.33;;;6.17;;
18677;SDS011;9469;51.114;13.914;2023-08-17T04:53:27;7.00;;;6.30;;
18677;SDS011;9469;51.114;13.914;2023-08-17T04:58:35;7.00;;;6.30;;
18677;SDS011;9469;51.114;13.914;2023-08-17T05:03:41;8.53;;;6.10;;
18677;SDS011;9469;51.114;13.914;2023-08-17T05:08:46;11.27;;;6.43;;
18677;SDS011;9469;51.114;13.914;2023-08-17T05:13:54;9.10;;;5.90;;
18677;SDS011;9469;51.114;13.914;2023-08-17T05:19:00;9.83;;;6.33;;
18677;SDS011;9469;51.114;13.914;2023-08-17T05:24:07;6.80;;;6.10;;
18677;SDS011;9469;51.114;13.914;2023-08-17T05:29:19;7.10;;;6.07;;
18677;SDS011;9469;51.114;13.914;2023-08-17T05:34:24;5.87;;;4.97;;
18677;SDS011;9469;51.114;13.914;2023-08-17T05:39:30;5.70;;;4.87;;
18677;SDS011;9469;51.114;13.914;2023-08-17T05:44:39;7.00;;;5.70;;
18677;SDS011;9469;51.114;13.914;2023-08-17T05:49:46;6.33;;;5.50;;
18677;SDS011;9469;51.114;13.914;2023-08-17T05:54:51;7.30;;;6.37;;
18677;SDS011;9469;51.114;13.914;2023-08-17T05:59:59;7.30;;;5.87;;
18677;SDS011;9469;51.114;13.914;2023-08-17T06:05:12;6.20;;;5.60;;
18677;SDS011;9469;51.114;13.914;2023-08-17T06:10:18;7.27;;;5.37;;
18677;SDS011;9469;51.114;13.914;2023-08-17T06:15:29;6.17;;;5.57;;
18677;SDS011;9469;51.114;13.914;2023-08-17T06:20:34;6.90;;;5.63;;
18677;SDS011;9469;51.114;13.914;2023-08-17T06:25:39;7.90;;;5.43;;
18677;SDS011;9469;51.114;13.914;2023-08-17T06:30:53;5.53;;;4.80;;
18677;SDS011;9469;51.114;13.914;2023-08-17T06:36:02;6.17;;;4.90;;
18677;SDS011;9469;51.114;13.914;2023-08-17T06:41:08;6.27;;;4.50;;
18677;SDS011;9469;51.114;13.914;2023-08-17T06:46:15;5.60;;;4.80;;
18677;SDS011;9469;51.114;13.914;2023-08-17T06:51:21;5.73;;;4.73;;
18677;SDS011;9469;51.114;13.914;2023-08-17T06:56:26;5.97;;;5.37;;
18677;SDS011;9469;51.114;13.914;2023-08-17T07:01:34;5.83;;;4.70;;
18677;SDS011;9469;51.114;13.914;2023-08-17T07:06:42;6.07;;;4.83;;
18677;SDS011;9469;51.114;13.914;2023-08-17T07:11:47;7.70;;;5.00;;
18677;SDS011;9469;51.114;13.914;2023-08-17T07:16:55;6.67;;;5.37;;
18677;SDS011;9469;51.114;13.914;2023-08-17T07:22:00;6.07;;;5.23;;
18677;SDS011;9469;51.114;13.914;2023-08-17T07:27:07;6.70;;;5.20;;
18677;SDS011;9469;51.114;13.914;2023-08-17T07:32:15;7.07;;;6.30;;
18677;SDS011;9469;51.114;13.914;2023-08-17T07:37:20;6.50;;;5.90;;
18677;SDS011;9469;51.114;13.914;2023-08-17T07:42:29;12.07;;;6.10;;
18677;SDS011;9469;51.114;13.914;2023-08-17T07:47:39;6.57;;;5.50;;
18677;SDS011;9469;51.114;13.914;2023-08-17T07:52:47;7.03;;;5.73;;
18677;SDS011;9469;51.114;13.914;2023-08-17T07:57:52;6.30;;;5.50;;
18677;SDS011;9469;51.114;13.914;2023-08-17T08:02:59;11.13;;;5.67;;
18677;SDS011;9469;51.114;13.914;2023-08-17T08:08:05;7.47;;;5.57;;
18677;SDS011;9469;51.114;13.914;2023-08-17T08:13:12;5.50;;;4.80;;
18677;SDS011;9469;51.114;13.914;2023-08-17T08:18:23;6.07;;;5.47;;
18677;SDS011;9469;51.114;13.914;2023-08-17T08:23:30;7.10;;;5.43;;
18677;SDS011;9469;51.114;13.914;2023-08-17T08:28:36;6.90;;;5.28;;
18677;SDS011;9469;51.114;13.914;2023-08-17T08:33:43;6.28;;;5.50;;
18677;SDS011;9469;51.114;13.914;2023-08-17T08:38:54;8.43;;;5.10;;
18677;SDS011;9469;51.114;13.914;2023-08-17T08:44:00;8.52;;;4.97;;
18677;SDS011;9469;51.114;13.914;2023-08-17T08:49:11;6.40;;;5.07;;
18677;SDS011;9469;51.114;13.914;2023-08-17T08:54:18;6.35;;;5.40;;
18677;SDS011;9469;51.114;13.914;2023-08-17T08:59:27;7.38;;;5.45;;
18677;SDS011;9469;51.114;13.914;2023-08-17T09:04:37;6.43;;;5.20;;
18677;SDS011;9469;51.114;13.914;2023-08-17T09:09:42;6.20;;;5.70;;
18677;SDS011;9469;51.114;13.914;2023-08-17T09:14:50;6.15;;;5.57;;
18677;SDS011;9469;51.114;13.914;2023-08-17T09:20:01;6.20;;;5.60;;
18677;SDS011;9469;51.114;13.914;2023-08-17T09:25:09;6.22;;;5.40;;
18677;SDS011;9469;51.114;13.914;2023-08-17T09:30:16;7.45;;;5.43;;
18677;SDS011;9469;51.114;13.914;2023-08-17T09:35:23;7.28;;;5.07;;
18677;SDS011;9469;51.114;13.914;2023-08-17T09:40:29;6.30;;;5.53;;
18677;SDS011;9469;51.114;13.914;2023-08-17T09:45:35;7.90;;;6.18;;
18677;SDS011;9469;51.114;13.914;2023-08-17T09:50:44;7.85;;;6.60;;
18677;SDS011;9469;51.114;13.914;2023-08-17T09:55:51;6.90;;;6.28;;
18677;SDS011;9469;51.114;13.914;2023-08-17T10:00:59;6.82;;;6.03;;
18677;SDS011;9469;51.114;13.914;2023-08-17T10:06:12;7.47;;;6.57;;
18677;SDS011;9469;51.114;13.914;2023-08-17T10:11:19;8.70;;;6.57;;
18677;SDS011;9469;51.114;13.914;2023-08-17T10:16:33;11.45;;;6.55;;
18677;SDS011;9469;51.114;13.914;2023-08-17T10:21:53;6.68;;;6.07;;
18677;SDS011;9469;51.114;13.914;2023-08-17T10:27:05;7.53;;;6.55;;
18677;SDS011;9469;51.114;13.914;2023-08-17T10:32:11;10.13;;;6.78;;
18677;SDS011;9469;51.114;13.914;2023-08-17T10:37:27;9.52;;;7.05;;
18677;SDS011;9469;51.114;13.914;2023-08-17T10:42:35;8.27;;;7.28;;
18677;SDS011;9469;51.114;13.914;2023-08-17T10:47:41;8.20;;;6.82;;
18677;SDS011;9469;51.114;13.914;2023-08-17T10:52:49;11.48;;;7.15;;
18677;SDS011;9469;51.114;13.914;2023-08-17T10:57:55;7.55;;;6.85;;
18677;SDS011;9469;51.114;13.914;2023-08-17T11:03:01;8.63;;;7.15;;
18677;SDS011;9469;51.114;13.914;2023-08-17T11:08:22;7.25;;;6.43;;
18677;SDS011;9469;51.114;13.914;2023-08-17T11:13:32;7.28;;;6.60;;
18677;SDS011;9469;51.114;13.914;2023-08-17T11:18:39;8.38;;;6.68;;
18677;SDS011;9469;51.114;13.914;2023-08-17T11:23:48;16.90;;;7.30;;
18677;SDS011;9469;51.114;13.914;2023-08-17T11:28:54;8.00;;;7.10;;
18677;SDS011;9469;51.114;13.914;2023-08-17T11:34:00;10.07;;;7.20;;
18677;SDS011;9469;51.114;13.914;2023-08-17T11:39:10;9.60;;;7.47;;
18677;SDS011;9469;51.114;13.914;2023-08-17T11:44:16;7.82;;;7.03;;
18677;SDS011;9469;51.114;13.914;2023-08-17T11:49:25;9.95;;;7.50;;
18677;SDS011;9469;51.114;13.914;2023-08-17T11:54:34;7.68;;;6.97;;
18677;SDS011;9469;51.114;13.914;2023-08-17T11:59:45;7.68;;;6.57;;
18677;SDS011;9469;51.114;13.914;2023-08-17T12:04:50;9.25;;;6.72;;
18677;SDS011;9469;51.114;13.914;2023-08-17T12:09:58;9.85;;;6.72;;
18677;SDS011;9469;51.114;13.914;2023-08-17T12:15:04;7.40;;;6.15;;
18677;SDS011;9469;51.114;13.914;2023-08-17T12:20:14;7.32;;;5.78;;
18677;SDS011;9469;51.114;13.914;2023-08-17T12:25:23;8.32;;;6.03;;
18677;SDS011;9469;51.114;13.914;2023-08-17T12:30:29;7.88;;;6.05;;
18677;SDS011;9469;51.114;13.914;2023-08-17T12:35:37;6.82;;;6.13;;
18677;SDS011;9469;51.114;13.914;2023-08-17T12:40:46;8.48;;;5.80;;
18677;SDS011;9469;51.114;13.914;2023-08-17T12:45:54;9.25;;;6.25;;
18677;SDS011;9469;51.114;13.914;2023-08-17T12:51:00;7.47;;;6.20;;
18677;SDS011;9469;51.114;13.914;2023-08-17T12:56:11;7.28;;;6.20;;
18677;SDS011;9469;51.114;13.914;2023-08-17T13:01:19;10.80;;;6.88;;
18677;SDS011;9469;51.114;13.914;2023-08-17T13:06:25;9.15;;;6.47;;
18677;SDS011;9469;51.114;13.914;2023-08-17T13:11:54;7.20;;;5.93;;
18677;SDS011;9469;51.114;13.914;2023-08-17T13:17:07;7.85;;;6.10;;
18677;SDS011;9469;51.114;13.914;2023-08-17T13:22:19;8.18;;;5.97;;
18677;SDS011;9469;51.114;13.914;2023-08-17T13:27:35;8.88;;;6.05;;
18677;SDS011;9469;51.114;13.914;2023-08-17T13:32:45;6.95;;;6.25;;
18677;SDS011;9469;51.114;13.914;2023-08-17T13:37:51;7.05;;;6.32;;
18677;SDS011;9469;51.114;13.914;2023-08-17T13:42:59;7.55;;;6.75;;
18677;SDS011;9469;51.114;13.914;2023-08-17T13:48:06;8.90;;;6.97;;
18677;SDS011;9469;51.114;13.914;2023-08-17T13:53:11;8.40;;;6.50;;
18677;SDS011;9469;51.114;13.914;2023-08-17T13:58:19;8.63;;;6.97;;
18677;SDS011;9469;51.114;13.914;2023-08-17T14:03:25;7.32;;;6.63;;
18677;SDS011;9469;51.114;13.914;2023-08-17T14:08:30;7.25;;;6.00;;
18677;SDS011;9469;51.114;13.914;2023-08-17T14:13:38;6.70;;;5.88;;
18677;SDS011;9469;51.114;13.914;2023-08-17T14:18:43;12.18;;;6.53;;
18677;SDS011;9469;51.114;13.914;2023-08-17T14:23:48;10.07;;;6.22;;
18677;SDS011;9469;51.114;13.914;2023-08-17T14:28:56;7.32;;;6.60;;
18677;SDS011;9469;51.114;13.914;2023-08-17T14:34:01;7.85;;;6.28;;
18677;SDS011;9469;51.114;13.914;2023-08-17T14:39:07;10.90;;;7.70;;
18677;SDS011;9469;51.114;13.914;2023-08-17T14:44:16;8.80;;;6.35;;
18677;SDS011;9469;51.114;13.914;2023-08-17T14:49:22;14.50;;;7.40;;
18677;SDS011;9469;51.114;13.914;2023-08-17T14:54:29;8.02;;;6.50;;
18677;SDS011;9469;51.114;13.914;2023-08-17T14:59:40;11.15;;;6.55;;
18677;SDS011;9469;51.114;13.914;2023-08-17T15:04:47;10.38;;;6.32;;
18677;SDS011;9469;51.114;13.914;2023-08-17T15:10:00;8.35;;;7.03;;
18677;SDS011;9469;51.114;13.914;2023-08-17T15:15:09;10.35;;;7.15;;
18677;SDS011;9469;51.114;13.914;2023-08-17T15:20:14;13.98;;;7.22;;
18677;SDS011;9469;51.114;13.914;2023-08-17T15:25:22;8.07;;;6.85;;
18677;SDS011;9469;51.114;13.914;2023-08-17T15:30:30;12.55;;;6.90;;
18677;SDS011;9469;51.114;13.914;2023-08-17T15:35:37;10.00;;;6.38;;
18677;SDS011;9469;51.114;13.914;2023-08-17T15:40:43;9.95;;;6.75;;
18677;SDS011;9469;51.114;13.914;2023-08-17T15:45:51;9.38;;;6.28;;
18677;SDS011;9469;51.114;13.914;2023-08-17T15:50:57;10.27;;;6.95;;
18677;SDS011;9469;51.114;13.914;2023-08-17T15:56:03;8.52;;;6.28;;
18677;SDS011;9469;51.114;13.914;2023-08-17T16:01:11;10.25;;;7.18;;
18677;SDS011;9469;51.114;13.914;2023-08-17T16:06:18;10.20;;;5.88;;
18677;SDS011;9469;51.114;13.914;2023-08-17T16:11:23;11.02;;;6.30;;
18677;SDS011;9469;51.114;13.914;2023-08-17T16:16:34;8.70;;;5.63;;
18677;SDS011;9469;51.114;13.914;2023-08-17T16:21:42;10.07;;;6.40;;
18677;SDS011;9469;51.114;13.914;2023-08-17T16:26:49;7.22;;;6.00;;
18677;SDS011;9469;51.114;13.914;2023-08-17T16:32:05;9.57;;;5.63;;
18677;SDS011;9469;51.114;13.914;2023-08-17T16:37:13;6.20;;;5.57;;
18677;SDS011;9469;51.114;13.914;2023-08-17T16:42:20;9.73;;;6.10;;
18677;SDS011;9469;51.114;13.914;2023-08-17T16:47:28;7.57;;;6.32;;
18677;SDS011;9469;51.114;13.914;2023-08-17T16:52:34;8.73;;;6.07;;
18677;SDS011;9469;51.114;13.914;2023-08-17T16:57:40;6.65;;;5.93;;
18677;SDS011;9469;51.114;13.914;2023-08-17T17:02:48;9.25;;;6.05;;
18677;SDS011;9469;51.114;13.914;2023-08-17T17:07:53;8.77;;;6.00;;
18677;SDS011;9469;51.114;13.914;2023-08-17T17:13:06;8.45;;;6.93;;
18677;SDS011;9469;51.114;13.914;2023-08-17T17:18:15;6.40;;;5.75;;
18677;SDS011;9469;51.114;13.914;2023-08-17T17:23:20;8.65;;;7.07;;
18677;SDS011;9469;51.114;13.914;2023-08-17T17:28:26;7.10;;;5.57;;
18677;SDS011;9469;51.114;13.914;2023-08-17T17:33:34;8.75;;;6.68;;
18677;SDS011;9469;51.114;13.914;2023-08-17T17:38:39;10.30;;;6.88;;
18677;SDS011;9469;51.114;13.914;2023-08-17T17:43:46;9.15;;;7.25;;
18677;SDS011;9469;51.114;13.914;2023-08-17T17:48:54;6.95;;;6.35;;
18677;SDS011;9469;51.114;13.914;2023-08-17T17:54:00;7.53;;;6.63;;
18677;SDS011;9469;51.114;13.914;2023-08-17T17:59:07;7.00;;;5.75;;
18677;SDS011;9469;51.114;13.914;2023-08-17T18:04:19;11.15;;;6.65;;
18677;SDS011;9469;51.114;13.914;2023-08-17T18:09:26;7.35;;;6.47;;
18677;SDS011;9469;51.114;13.914;2023-08-17T18:14:31;11.55;;;6.60;;
18677;SDS011;9469;51.114;13.914;2023-08-17T18:19:40;7.90;;;5.85;;
18677;SDS011;9469;51.114;13.914;2023-08-17T18:24:49;9.32;;;5.78;;
18677;SDS011;9469;51.114;13.914;2023-08-17T18:29:55;7.63;;;5.68;;
18677;SDS011;9469;51.114;13.914;2023-08-17T18:35:05;9.15;;;5.72;;
18677;SDS011;9469;51.114;13.914;2023-08-17T18:40:11;6.20;;;5.60;;
18677;SDS011;9469;51.114;13.914;2023-08-17T18:45:22;7.13;;;5.60;;
18677;SDS011;9469;51.114;13.914;2023-08-17T18:50:33;5.70;;;5.18;;
18677;SDS011;9469;51.114;13.914;2023-08-17T18:55:38;5.95;;;5.45;;
18677;SDS011;9469;51.114;13.914;2023-08-17T19:00:43;8.38;;;5.10;;
18677;SDS011;9469;51.114;13.914;2023-08-17T19:05:52;6.55;;;5.15;;
18677;SDS011;9469;51.114;13.914;2023-08-17T19:10:59;6.57;;;4.97;;
18677;SDS011;9469;51.114;13.914;2023-08-17T19:16:04;5.47;;;4.72;;
18677;SDS011;9469;51.114;13.914;2023-08-17T19:21:14;5.55;;;5.03;;
18677;SDS011;9469;51.114;13.914;2023-08-17T19:26:19;6.15;;;4.68;;
18677;SDS011;9469;51.114;13.914;2023-08-17T19:31:24;7.63;;;5.07;;
18677;SDS011;9469;51.114;13.914;2023-08-17T19:36:32;7.22;;;5.03;;
18677;SDS011;9469;51.114;13.914;2023-08-17T19:41:38;5.35;;;4.68;;
18677;SDS011;9469;51.114;13.914;2023-08-17T19:46:48;5.37;;;4.30;;
18677;SDS011;9469;51.114;13.914;2023-08-17T19:51:59;5.73;;;5.20;;
18677;SDS011;9469;51.114;13.914;2023-08-17T19:57:04;8.37;;;5.23;;
18677;SDS011;9469;51.114;13.914;2023-08-17T20:02:10;5.30;;;4.80;;
18677;SDS011;9469;51.114;13.914;2023-08-17T20:07:21;6.23;;;4.57;;
18677;SDS011;9469;51.114;13.914;2023-08-17T20:12:27;6.05;;;5.20;;
18677;SDS011;9469;51.114;13.914;2023-08-17T20:17:33;5.78;;;4.25;;
18677;SDS011;9469;51.114;13.914;2023-08-17T20:22:40;7.10;;;4.60;;
18677;SDS011;9469;51.114;13.914;2023-08-17T20:27:46;7.47;;;4.45;;
18677;SDS011;9469;51.114;13.914;2023-08-17T20:32:53;4.50;;;4.07;;
18677;SDS011;9469;51.114;13.914;2023-08-17T20:38:00;6.10;;;4.60;;
18677;SDS011;9469;51.114;13.914;2023-08-17T20:43:05;5.88;;;5.00;;
18677;SDS011;9469;51.114;13.914;2023-08-17T20:48:11;5.07;;;4.32;;
18677;SDS011;9469;51.114;13.914;2023-08-17T20:53:19;6.28;;;4.82;;
18677;SDS011;9469;51.114;13.914;2023-08-17T20:58:24;5.83;;;5.07;;
18677;SDS011;9469;51.114;13.914;2023-08-17T21:03:32;5.60;;;5.10;;
18677;SDS011;9469;51.114;13.914;2023-08-17T21:08:40;6.00;;;5.40;;
18677;SDS011;9469;51.114;13.914;2023-08-17T21:13:46;4.90;;;4.30;;
18677;SDS011;9469;51.114;13.914;2023-08-17T21:18:52;6.17;;;5.30;;
18677;SDS011;9469;51.114;13.914;2023-08-17T21:24:03;5.80;;;5.10;;
18677;SDS011;9469;51.114;13.914;2023-08-17T21:29:11;6.00;;;5.40;;
18677;SDS011;9469;51.114;13.914;2023-08-17T21:34:17;5.72;;;5.18;;
18677;SDS011;9469;51.114;13.914;2023-08-17T21:39:25;6.13;;;4.87;;
18677;SDS011;9469;51.114;13.914;2023-08-17T21:44:30;6.03;;;5.00;;
18677;SDS011;9469;51.114;13.914;2023-08-17T21:49:36;5.77;;;5.27;;
18677;SDS011;9469;51.114;13.914;2023-08-17T21:54:47;6.33;;;4.87;;
18677;SDS011;9469;51.114;13.914;2023-08-17T21:59:53;6.87;;;5.10;;
18677;SDS011;9469;51.114;13.914;2023-08-17T22:04:58;7.27;;;5.53;;
18677;SDS011;9469;51.114;13.914;2023-08-17T22:10:07;8.23;;;6.23;;
18677;SDS011;9469;51.114;13.914;2023-08-17T22:15:15;6.20;;;4.93;;
18677;SDS011;9469;51.114;13.914;2023-08-17T22:20:21;5.67;;;5.13;;
18677;SDS011;9469;51.114;13.914;2023-08-17T22:25:29;7.23;;;5.17;;
18677;SDS011;9469;51.114;13.914;2023-08-17T22:30:35;8.13;;;5.63;;
18677;SDS011;9469;51.114;13.914;2023-08-17T22:35:43;7.43;;;5.40;;
18677;SDS011;9469;51.114;13.914;2023-08-17T22:40:51;8.17;;;6.00;;
18677;SDS011;9469;51.114;13.914;2023-08-17T22:45:56;13.37;;;6.50;;
18677;SDS011;9469;51.114;13.914;2023-08-17T22:51:02;7.03;;;6.00;;
18677;SDS011;9469;51.114;13.914;2023-08-17T22:56:10;6.30;;;5.57;;
18677;SDS011;9469;51.114;13.914;2023-08-17T23:01:16;9.10;;;6.63;;
18677;SDS011;9469;51.114;13.914;2023-08-17T23:06:21;6.50;;;5.90;;
18677;SDS011;9469;51.114;13.914;2023-08-17T23:11:29;6.73;;;6.03;;
18677;SDS011;9469;51.114;13.914;2023-08-17T23:16:36;6.63;;;5.97;;
18677;SDS011;9469;51.114;13.914;2023-08-17T23:21:41;9.03;;;6.33;;
18677;SDS011;9469;51.114;13.914;2023-08-17T23:26:49;9.00;;;6.03;;
18677;SDS011;9469;51.114;13.914;2023-08-17T23:31:54;6.13;;;5.50;;
18677;SDS011;9469;51.114;13.914;2023-08-17T23:37:17;10.70;;;6.13;;
18677;SDS011;9469;51.114;13.914;2023-08-17T23:42:24;6.43;;;5.17;;
18677;SDS011;9469;51.114;13.914;2023-08-17T23:47:30;7.77;;;6.20;;
18677;SDS011;9469;51.114;13.914;2023-08-17T23:52:35;7.00;;;6.30;;
18677;SDS011;9469;51.114;13.914;2023-08-17T23:57:45;7.03;;;6.23;;
